createdAt,value
2018-10-19T00:00:25.214Z,55.20
2018-10-19T00:02:54.279Z,59.03
2018-10-19T00:05:22.876Z,56.07
2018-10-19T00:07:51.504Z,61.60
2018-10-19T00:10:20.187Z,61.27
2018-10-19T00:12:48.826Z,73.43
2018-10-19T00:15:17.572Z,61.37
2018-10-19T00:17:46.060Z,63.10
2018-10-19T00:20:14.714Z,58.03
2018-10-19T00:22:43.312Z,61.00
2018-10-19T00:25:11.928Z,61.00
2018-10-19T00:27:40.535Z,63.67
2018-10-19T00:30:09.858Z,61.07
2018-10-19T00:32:38.473Z,60.73
2018-10-19T00:35:07.751Z,64.13
2018-10-19T00:37:36.361Z,65.07
2018-10-19T00:40:05.544Z,68.83
2018-10-19T00:42:34.177Z,63.93
2018-10-19T00:45:02.881Z,63.07
2018-10-19T00:47:31.697Z,58.53
2018-10-19T00:50:00.300Z,65.07
2018-10-19T00:52:28.905Z,59.63
2018-10-19T00:54:57.495Z,66.13
2018-10-19T00:57:26.120Z,66.70
2018-10-19T00:59:54.701Z,62.30
2018-10-19T01:02:23.312Z,61.87
2018-10-19T01:04:51.921Z,70.27
2018-10-19T01:07:20.561Z,62.03
2018-10-19T01:09:49.153Z,67.13
2018-10-19T01:12:17.745Z,60.63
2018-10-19T01:14:46.356Z,62.10
2018-10-19T01:17:15.053Z,69.10
2018-10-19T01:19:43.617Z,62.50
2018-10-19T01:22:12.223Z,62.63
2018-10-19T01:24:40.826Z,70.80
2018-10-19T01:27:09.510Z,65.63
2018-10-19T01:29:38.117Z,65.83
2018-10-19T01:32:06.737Z,70.60
2018-10-19T01:34:35.352Z,82.67
2018-10-19T01:37:05.153Z,80.07
2018-10-19T01:39:33.741Z,73.93
2018-10-19T01:42:02.366Z,77.90
2018-10-19T01:44:32.411Z,73.90
2018-10-19T01:47:01.082Z,75.23
2018-10-19T01:49:29.697Z,73.83
2018-10-19T01:51:58.289Z,74.57
2018-10-19T01:54:26.892Z,76.40
2018-10-19T01:56:55.514Z,77.70
2018-10-19T01:59:24.117Z,78.27
2018-10-19T02:01:52.765Z,77.70
2018-10-19T02:04:21.378Z,77.33
2018-10-19T02:06:49.982Z,77.00
2018-10-19T02:09:19.222Z,75.33
2018-10-19T02:11:47.852Z,76.00
2018-10-19T02:14:16.460Z,91.83
2018-10-19T02:16:45.105Z,82.40
2018-10-19T02:19:13.693Z,83.13
2018-10-19T02:21:42.317Z,78.63
2018-10-19T02:24:10.929Z,80.10
2018-10-19T02:26:39.585Z,90.90
2018-10-19T02:29:08.316Z,86.67
2018-10-19T02:31:36.900Z,93.67
2018-10-19T02:34:05.961Z,88.57
2018-10-19T02:36:34.574Z,88.73
2018-10-19T02:39:03.333Z,92.80
2018-10-19T02:41:31.948Z,89.43
2018-10-19T02:44:00.529Z,83.47
2018-10-19T02:46:29.209Z,89.00
2018-10-19T02:48:57.802Z,85.83
2018-10-19T02:51:26.402Z,81.00
2018-10-19T02:53:55.010Z,88.97
2018-10-19T02:56:23.610Z,94.93
2018-10-19T02:58:52.266Z,89.67
2018-10-19T03:01:20.897Z,95.77
2018-10-19T03:03:49.537Z,89.00
2018-10-19T03:06:18.173Z,92.33
2018-10-19T03:08:46.761Z,90.67
2018-10-19T03:11:15.419Z,83.17
2018-10-19T03:13:43.989Z,97.60
2018-10-19T03:16:12.605Z,91.87
2018-10-19T03:18:41.196Z,97.00
2018-10-19T03:21:10.097Z,99.97
2018-10-19T03:23:38.973Z,96.03
2018-10-19T03:26:08.453Z,101.10
2018-10-19T03:28:37.045Z,93.60
2018-10-19T03:31:06.019Z,96.07
2018-10-19T03:33:34.650Z,96.07
2018-10-19T03:36:03.268Z,103.10
2018-10-19T03:38:31.869Z,102.10
2018-10-19T03:41:00.506Z,95.40
2018-10-19T03:43:29.092Z,99.53
2018-10-19T03:45:57.717Z,99.67
2018-10-19T03:48:26.304Z,96.53
2018-10-19T03:50:54.966Z,100.67
2018-10-19T03:53:23.509Z,95.63
2018-10-19T03:55:52.146Z,100.10
2018-10-19T03:58:20.761Z,94.37
2018-10-19T04:00:49.388Z,104.50
2018-10-19T04:03:18.043Z,96.60
2018-10-19T04:05:46.603Z,103.40
2018-10-19T04:08:15.185Z,103.20
2018-10-19T04:10:43.828Z,100.23
2018-10-19T04:13:12.445Z,104.80
2018-10-19T04:15:41.049Z,106.37
2018-10-19T04:18:09.659Z,109.10
2018-10-19T04:20:38.269Z,111.27
2018-10-19T04:23:08.746Z,107.03
2018-10-19T04:25:38.429Z,105.47
2018-10-19T04:28:07.061Z,109.03
2018-10-19T04:30:36.882Z,107.50
2018-10-19T04:33:06.059Z,110.93
2018-10-19T04:35:34.787Z,113.97
2018-10-19T04:38:03.681Z,116.30
2018-10-19T04:40:32.269Z,116.50
2018-10-19T04:43:01.009Z,112.83
2018-10-19T04:45:29.604Z,111.00
2018-10-19T04:47:58.215Z,112.67
2018-10-19T04:50:26.859Z,109.77
2018-10-19T04:52:55.471Z,101.17
2018-10-19T04:55:24.072Z,115.43
2018-10-19T04:57:52.726Z,109.77
2018-10-19T05:00:21.761Z,102.30
2018-10-19T05:02:51.299Z,107.10
2018-10-19T05:05:20.079Z,111.67
2018-10-19T05:07:48.646Z,100.93
2018-10-19T05:10:17.274Z,110.70
2018-10-19T05:12:45.922Z,108.10
2018-10-19T05:15:14.534Z,115.07
2018-10-19T05:17:43.172Z,116.23
2018-10-19T05:20:12.612Z,109.27
2018-10-19T05:22:41.196Z,116.90
2018-10-19T05:25:12.148Z,106.70
2018-10-19T05:27:40.760Z,117.07
2018-10-19T05:30:11.213Z,109.93
2018-10-19T05:32:40.370Z,110.17
2018-10-19T05:35:09.006Z,111.60
2018-10-19T05:37:38.700Z,120.37
2018-10-19T05:40:08.425Z,109.70
2018-10-19T05:42:37.072Z,103.93
2018-10-19T05:45:08.269Z,109.27
2018-10-19T05:47:36.934Z,103.90
2018-10-19T05:50:06.468Z,103.80
2018-10-19T05:52:35.001Z,107.17
2018-10-19T05:55:03.665Z,108.07
2018-10-19T05:57:32.269Z,111.47
2018-10-19T06:00:00.876Z,110.80
2018-10-19T06:02:29.978Z,118.70
2018-10-19T06:04:58.540Z,113.60
2018-10-19T06:07:27.140Z,112.13
2018-10-19T06:09:55.736Z,111.47
2018-10-19T06:12:24.321Z,115.63
2018-10-19T06:14:52.924Z,110.43
2018-10-19T06:17:21.565Z,115.40
2018-10-19T06:19:50.206Z,106.97
2018-10-19T06:22:18.832Z,115.53
2018-10-19T06:24:47.481Z,109.10
2018-10-19T06:27:16.138Z,106.03
2018-10-19T06:29:44.765Z,101.33
2018-10-19T06:32:13.498Z,100.00
2018-10-19T06:34:42.029Z,95.63
2018-10-19T06:37:10.621Z,104.73
2018-10-19T06:39:39.229Z,105.20
2018-10-19T06:42:07.868Z,105.33
2018-10-19T06:44:36.475Z,103.20
2018-10-19T06:47:05.331Z,104.10
2018-10-19T06:49:33.888Z,106.10
2018-10-19T06:52:02.540Z,105.43
2018-10-19T06:54:31.213Z,119.03
2018-10-19T06:56:59.833Z,115.70
2018-10-19T06:59:28.515Z,132.47
2018-10-19T07:01:57.105Z,124.40
2018-10-19T07:04:25.700Z,115.80
2018-10-19T07:06:54.325Z,122.77
2018-10-19T07:09:22.941Z,112.20
2018-10-19T07:11:51.548Z,107.43
2018-10-19T07:14:20.149Z,114.80
2018-10-19T07:16:48.767Z,122.83
2018-10-19T07:19:17.376Z,122.47
2018-10-19T07:21:46.063Z,120.60
2018-10-19T07:24:14.645Z,116.13
2018-10-19T07:26:43.273Z,115.20
2018-10-19T07:29:11.960Z,119.90
2018-10-19T07:31:40.532Z,110.13
2018-10-19T07:34:09.121Z,110.73
2018-10-19T07:36:37.781Z,114.63
2018-10-19T07:39:07.786Z,115.57
2018-10-19T07:41:36.412Z,118.43
2018-10-19T07:44:05.339Z,115.87
2018-10-19T07:46:33.980Z,115.77
2018-10-19T07:49:02.585Z,111.77
2018-10-19T07:51:31.193Z,117.87
2018-10-19T07:53:59.797Z,113.60
2018-10-19T07:56:28.388Z,117.73
2018-10-19T07:58:57.051Z,123.70
2018-10-19T08:01:25.645Z,109.57
2018-10-19T08:03:54.250Z,114.37
2018-10-19T08:06:22.836Z,124.20
2018-10-19T08:08:51.457Z,118.50
2018-10-19T08:11:20.157Z,115.70
2018-10-19T08:13:48.757Z,116.87
2018-10-19T08:16:17.393Z,117.87
2018-10-19T08:18:46.009Z,120.67
2018-10-19T08:21:14.659Z,116.20
2018-10-19T08:23:43.292Z,115.33
2018-10-19T08:26:11.972Z,118.77
2018-10-19T08:28:40.560Z,117.37
2018-10-19T08:31:09.164Z,112.27
2018-10-19T08:33:37.775Z,122.07
2018-10-19T08:36:06.423Z,113.93
2018-10-19T08:38:35.106Z,124.37
2018-10-19T08:41:03.781Z,119.27
2018-10-19T08:43:32.357Z,112.63
2018-10-19T08:46:06.337Z,112.23
2018-10-19T08:48:35.024Z,114.03
2018-10-19T08:51:03.706Z,115.27
2018-10-19T08:53:32.338Z,109.83
2018-10-19T08:56:00.922Z,108.07
2018-10-19T08:58:29.569Z,120.10
2018-10-19T09:00:58.178Z,116.00
2018-10-19T09:03:26.838Z,106.83
2018-10-19T09:05:55.486Z,112.00
2018-10-19T09:08:24.077Z,113.80
2018-10-19T09:10:52.693Z,110.93
2018-10-19T09:13:21.257Z,111.07
2018-10-19T09:15:49.873Z,113.80
2018-10-19T09:18:18.545Z,111.87
2018-10-19T09:20:47.125Z,106.03
2018-10-19T09:23:15.781Z,110.67
2018-10-19T09:25:44.349Z,108.70
2018-10-19T09:28:13.121Z,111.97
2018-10-19T09:30:41.773Z,110.37
2018-10-19T09:33:10.358Z,108.50
2018-10-19T09:35:39.085Z,110.37
2018-10-19T09:38:07.657Z,105.00
2018-10-19T09:40:36.243Z,103.37
2018-10-19T09:43:04.978Z,107.03
2018-10-19T09:45:33.693Z,102.90
2018-10-19T09:48:02.461Z,96.53
2018-10-19T09:50:31.061Z,99.10
2018-10-19T09:52:59.682Z,98.20
2018-10-19T09:55:28.334Z,99.10
2018-10-19T09:57:56.953Z,101.20
2018-10-19T10:00:30.809Z,98.33
2018-10-19T10:02:59.463Z,96.93
2018-10-19T10:05:28.037Z,103.27
2018-10-19T10:07:56.716Z,101.10
2018-10-19T10:10:25.319Z,100.63
2018-10-19T10:12:53.935Z,100.93
2018-10-19T10:15:22.606Z,101.03
2018-10-19T10:17:51.140Z,96.03
2018-10-19T10:20:19.733Z,105.87
2018-10-19T10:22:48.352Z,98.47
2018-10-19T10:25:17.019Z,102.07
2018-10-19T10:27:45.593Z,92.13
2018-10-19T10:30:14.288Z,91.97
2018-10-19T10:32:42.908Z,104.40
2018-10-19T10:35:11.497Z,92.80
2018-10-19T10:37:40.085Z,94.57
2018-10-19T10:40:08.907Z,101.07
2018-10-19T10:42:37.779Z,95.33
2018-10-19T10:45:06.421Z,96.33
2018-10-19T10:47:35.020Z,98.17
2018-10-19T10:50:03.673Z,97.77
2018-10-19T10:52:32.277Z,98.30
2018-10-19T10:55:00.896Z,98.77
2018-10-19T10:57:29.506Z,97.50
2018-10-19T10:59:58.129Z,91.83
2018-10-19T11:02:26.734Z,94.67
2018-10-19T11:04:55.337Z,91.47
2018-10-19T11:07:24.087Z,92.20
2018-10-19T11:09:52.844Z,103.23
2018-10-19T11:12:21.444Z,90.37
2018-10-19T11:14:50.053Z,92.90
2018-10-19T11:17:18.942Z,85.73
2018-10-19T11:19:47.557Z,91.57
2018-10-19T11:22:16.275Z,96.37
2018-10-19T11:24:44.813Z,90.17
2018-10-19T11:27:13.421Z,99.47
2018-10-19T11:29:42.009Z,93.87
2018-10-19T11:32:10.602Z,88.80
2018-10-19T11:34:39.193Z,86.03
2018-10-19T11:37:07.878Z,83.30
2018-10-19T11:39:40.965Z,80.60
2018-10-19T11:42:09.586Z,77.60
2018-10-19T11:44:38.193Z,82.40
2018-10-19T11:47:06.809Z,75.60
2018-10-19T11:49:35.393Z,83.20
2018-10-19T11:52:04.115Z,92.40
2018-10-19T11:54:32.664Z,84.07
2018-10-19T11:57:01.333Z,87.87
2018-10-19T11:59:29.877Z,94.03
2018-10-19T12:01:58.468Z,89.33
2018-10-19T12:04:27.122Z,84.43
2018-10-19T12:06:55.773Z,84.43
2018-10-19T12:09:24.393Z,81.97
2018-10-19T12:11:52.980Z,80.37
2018-10-19T12:14:21.597Z,78.70
2018-10-19T12:16:50.342Z,81.77
2018-10-19T12:19:18.883Z,75.03
2018-10-19T12:21:47.494Z,76.07
2018-10-19T12:24:16.127Z,72.67
2018-10-19T12:26:44.736Z,76.63
2018-10-19T12:29:13.349Z,70.40
2018-10-19T12:31:41.961Z,77.07
2018-10-19T12:34:10.621Z,84.17
2018-10-19T12:36:39.226Z,70.63
2018-10-19T12:39:09.036Z,74.37
2018-10-19T12:41:37.597Z,72.60
2018-10-19T12:44:06.221Z,70.50
2018-10-19T12:46:48.212Z,80.27
2018-10-19T12:49:18.415Z,67.53
2018-10-19T12:51:47.056Z,64.77
2018-10-19T12:54:15.820Z,68.90
2018-10-19T12:56:44.384Z,71.30
2018-10-19T12:59:13.001Z,69.93
2018-10-19T13:01:41.637Z,64.37
2018-10-19T13:04:10.258Z,59.87
2018-10-19T13:06:38.856Z,63.67
2018-10-19T13:09:11.662Z,64.70
2018-10-19T13:11:40.279Z,65.73
2018-10-19T13:14:08.905Z,60.17
2018-10-19T13:16:37.526Z,59.70
2018-10-19T13:19:06.227Z,55.40
2018-10-19T13:21:34.853Z,66.47
2018-10-19T13:24:03.588Z,64.10
2018-10-19T13:26:32.156Z,65.77
2018-10-19T13:29:00.766Z,67.27
2018-10-19T13:31:29.376Z,67.40
2018-10-19T13:33:58.002Z,63.23
2018-10-19T13:36:26.608Z,67.77
2018-10-19T13:38:55.267Z,66.43
2018-10-19T13:41:23.875Z,67.07
2018-10-19T13:43:52.492Z,70.30
2018-10-19T13:46:21.185Z,72.13
2018-10-19T13:48:49.829Z,69.27
2018-10-19T13:51:19.332Z,71.50
2018-10-19T13:53:47.940Z,65.60
2018-10-19T13:56:16.525Z,71.37
2018-10-19T13:58:45.183Z,67.90
2018-10-19T14:01:13.769Z,65.23
2018-10-19T14:03:42.378Z,66.33
2018-10-19T14:06:10.985Z,73.27
2018-10-19T14:08:39.721Z,70.13
2018-10-19T14:11:08.392Z,65.30
2018-10-19T14:13:36.953Z,65.47
2018-10-19T14:16:05.692Z,71.93
2018-10-19T14:18:34.316Z,69.73
2018-10-19T14:21:03.022Z,80.07
2018-10-19T14:23:31.629Z,73.50
2018-10-19T14:26:00.232Z,73.60
2018-10-19T14:28:28.832Z,73.80
2018-10-19T14:30:57.493Z,68.47
2018-10-19T14:33:26.255Z,67.13
2018-10-19T14:35:54.970Z,79.87
2018-10-19T14:38:23.577Z,73.40
2018-10-19T14:40:52.198Z,73.30
2018-10-19T14:43:20.803Z,68.57
2018-10-19T14:45:49.429Z,69.13
2018-10-19T14:48:18.087Z,72.60
2018-10-19T14:50:46.708Z,67.23
2018-10-19T14:53:15.385Z,70.87
2018-10-19T14:55:44.012Z,67.43
2018-10-19T14:58:12.624Z,71.87
2018-10-19T15:00:41.261Z,68.77
2018-10-19T15:03:09.881Z,68.30
2018-10-19T15:05:38.460Z,69.77
2018-10-19T15:08:07.062Z,69.67
2018-10-19T15:10:35.946Z,70.47
2018-10-19T15:13:04.333Z,71.17
2018-10-19T15:15:32.965Z,71.40
2018-10-19T15:18:01.632Z,68.30
2018-10-19T15:20:30.210Z,67.47
2018-10-19T15:22:58.818Z,66.73
2018-10-19T15:25:27.441Z,64.77
2018-10-19T15:27:56.050Z,66.40
2018-10-19T15:30:24.666Z,64.37
2018-10-19T15:32:53.283Z,59.43
2018-10-19T15:35:21.889Z,61.43
2018-10-19T15:37:50.549Z,63.17
2018-10-19T15:40:19.147Z,65.47
2018-10-19T15:42:47.756Z,69.53
2018-10-19T15:45:17.380Z,67.13
2018-10-19T15:47:45.857Z,63.43
2018-10-19T15:50:14.481Z,67.77
2018-10-19T15:52:43.117Z,65.60
2018-10-19T15:55:11.753Z,68.00
2018-10-19T15:57:40.433Z,70.23
2018-10-19T16:00:09.953Z,76.37
2018-10-19T16:02:38.540Z,74.33
2018-10-19T16:05:07.284Z,73.37
2018-10-19T16:07:35.903Z,70.03
2018-10-19T16:10:04.807Z,63.40
2018-10-19T16:12:33.421Z,67.80
2018-10-19T16:15:02.062Z,69.47
2018-10-19T16:17:30.707Z,72.63
2018-10-19T16:19:59.336Z,68.67
2018-10-19T16:22:27.969Z,69.93
2018-10-19T16:24:56.579Z,72.23
2018-10-19T16:27:25.284Z,71.13
2018-10-19T16:29:53.867Z,70.23
2018-10-19T16:32:22.469Z,69.33
2018-10-19T16:34:51.089Z,63.43
2018-10-19T16:37:19.715Z,69.73
2018-10-19T16:39:48.321Z,67.57
2018-10-19T16:42:17.017Z,64.93
2018-10-19T16:44:45.612Z,70.00
2018-10-19T16:47:14.252Z,63.30
2018-10-19T16:49:42.853Z,60.83
2018-10-19T16:52:11.494Z,65.60
2018-10-19T16:54:40.081Z,66.73
2018-10-19T16:57:08.792Z,65.20
2018-10-19T16:59:37.341Z,64.47
2018-10-19T17:02:06.112Z,73.30
2018-10-19T17:04:34.791Z,71.70
2018-10-19T17:07:03.433Z,65.97
2018-10-19T17:09:32.089Z,73.27
2018-10-19T17:12:00.756Z,68.03
2018-10-19T17:14:29.398Z,65.27
2018-10-19T17:16:57.988Z,63.80
2018-10-19T17:19:26.634Z,120.27
2018-10-19T17:21:55.237Z,73.30
2018-10-19T17:24:23.888Z,65.20
2018-10-19T17:26:52.514Z,67.80
2018-10-19T17:29:21.153Z,68.07
2018-10-19T17:31:49.820Z,70.53
2018-10-19T17:34:18.588Z,70.17
2018-10-19T17:36:47.216Z,66.17
2018-10-19T17:39:15.911Z,84.73
2018-10-19T17:41:44.486Z,74.80
2018-10-19T17:44:13.084Z,69.87
2018-10-19T17:46:41.688Z,70.07
2018-10-19T17:49:10.353Z,70.57
2018-10-19T17:51:38.893Z,69.27
2018-10-19T17:54:07.553Z,70.17
2018-10-19T17:56:36.113Z,82.33
2018-10-19T17:59:04.804Z,71.33
2018-10-19T18:01:33.457Z,80.43
2018-10-19T18:04:02.113Z,78.20
2018-10-19T18:06:30.727Z,77.33
2018-10-19T18:08:59.390Z,80.03
2018-10-19T18:11:28.037Z,76.80
2018-10-19T18:13:56.614Z,86.87
2018-10-19T18:16:25.212Z,79.23
2018-10-19T18:18:53.858Z,75.50
2018-10-19T18:21:22.479Z,71.57
2018-10-19T18:23:51.075Z,77.87
2018-10-19T18:26:19.717Z,76.73
2018-10-19T18:28:48.389Z,74.80
2018-10-19T18:31:16.991Z,79.90
2018-10-19T18:33:45.606Z,75.90
2018-10-19T18:36:14.225Z,90.60
2018-10-19T18:38:42.832Z,83.63
2018-10-19T18:41:11.526Z,80.97
2018-10-19T18:43:40.082Z,71.03
2018-10-19T18:46:08.689Z,75.10
2018-10-19T18:48:37.473Z,76.27
2018-10-19T18:51:06.361Z,71.53
2018-10-19T18:53:41.500Z,80.60
2018-10-19T18:56:10.607Z,78.30
2018-10-19T18:58:39.293Z,75.27
2018-10-19T19:01:07.936Z,78.47
2018-10-19T19:03:36.681Z,72.57
2018-10-19T19:06:05.513Z,82.40
2018-10-19T19:08:34.125Z,71.87
2018-10-19T19:11:02.885Z,85.50
2018-10-19T19:13:32.547Z,76.60
2018-10-19T19:16:01.405Z,122.33
2018-10-19T19:18:30.154Z,82.37
2018-10-19T19:20:58.869Z,94.87
2018-10-19T19:23:27.525Z,85.87
2018-10-19T19:26:12.735Z,85.83
2018-10-19T19:28:41.428Z,83.40
2018-10-19T19:31:10.112Z,85.03
2018-10-19T19:33:44.107Z,87.43
2018-10-19T19:36:12.827Z,86.83
2018-10-19T19:38:41.503Z,88.37
2018-10-19T19:41:15.700Z,86.47
2018-10-19T19:43:44.413Z,85.57
2018-10-19T19:46:13.147Z,80.70
2018-10-19T19:48:47.035Z,84.07
2018-10-19T19:51:15.703Z,93.93
2018-10-19T19:53:44.324Z,95.57
2018-10-19T19:56:13.396Z,101.33
2018-10-19T19:58:42.091Z,93.30
2018-10-19T20:01:10.975Z,88.87
2018-10-19T20:03:39.735Z,96.80
2018-10-19T20:06:08.792Z,91.23
2018-10-19T20:08:37.543Z,95.03
2018-10-19T20:11:06.660Z,106.63
2018-10-19T20:13:35.309Z,95.30
2018-10-19T20:16:04.155Z,96.50
2018-10-19T20:18:32.998Z,106.23
2018-10-19T20:21:01.746Z,99.07
2018-10-19T20:23:30.351Z,91.80
2018-10-19T20:25:59.339Z,95.43
2018-10-19T20:28:28.124Z,98.47
2018-10-19T20:30:57.076Z,97.90
2018-10-19T20:33:26.009Z,94.77
2018-10-19T20:35:54.688Z,95.07
2018-10-19T20:38:23.524Z,89.20
2018-10-19T20:40:52.472Z,93.07
2018-10-19T20:43:21.276Z,94.77
2018-10-19T20:45:49.982Z,88.33
2018-10-19T20:48:18.726Z,101.67
2018-10-19T20:50:47.639Z,96.43
2018-10-19T20:53:16.555Z,100.93
2018-10-19T20:55:45.409Z,96.37
2018-10-19T20:58:14.146Z,95.53
2018-10-19T21:00:42.978Z,90.73
2018-10-19T21:03:11.688Z,95.53
2018-10-19T21:05:40.524Z,92.77
2018-10-19T21:08:09.202Z,94.60
2018-10-19T21:10:38.015Z,98.67
2018-10-19T21:13:06.819Z,95.03
2018-10-19T21:15:35.518Z,95.90
2018-10-19T21:18:04.358Z,101.03
2018-10-19T21:20:33.176Z,88.93
2018-10-19T21:23:02.061Z,93.40
2018-10-19T21:25:30.936Z,87.07
2018-10-19T21:27:59.677Z,89.20
2018-10-19T21:30:28.387Z,88.77
2018-10-19T21:32:57.097Z,92.80
2018-10-19T21:35:25.962Z,101.83
2018-10-19T21:37:54.704Z,91.93
2018-10-19T21:40:23.633Z,92.07
2018-10-19T21:42:52.369Z,88.97
2018-10-19T21:45:21.114Z,99.83
2018-10-19T21:47:49.973Z,100.80
2018-10-19T21:50:21.827Z,100.00
2018-10-19T21:52:51.367Z,104.90
2018-10-19T21:55:19.970Z,98.37
2018-10-19T21:57:48.604Z,96.50
2018-10-19T22:00:17.269Z,97.60
2018-10-19T22:02:45.876Z,104.83
2018-10-19T22:05:14.589Z,101.20
2018-10-19T22:07:43.234Z,100.80
2018-10-19T22:10:11.795Z,100.37
2018-10-19T22:12:40.397Z,95.53
2018-10-19T22:15:09.590Z,97.10
2018-10-19T22:17:38.185Z,101.70
2018-10-19T22:20:07.314Z,96.57
2018-10-19T22:22:35.956Z,99.93
2018-10-19T22:25:05.152Z,94.80
2018-10-19T22:27:33.721Z,97.07
2018-10-19T22:30:02.356Z,101.40
2018-10-19T22:32:30.983Z,91.40
2018-10-19T22:34:59.586Z,95.30
2018-10-19T22:37:28.193Z,96.07
2018-10-19T22:39:56.793Z,91.67
2018-10-19T22:42:25.392Z,92.57
2018-10-19T22:44:53.953Z,93.53
2018-10-19T22:47:22.570Z,93.33
2018-10-19T22:49:51.161Z,89.67
2018-10-19T22:52:19.773Z,84.80
2018-10-19T22:54:48.380Z,89.17
2018-10-19T22:57:16.976Z,91.07
2018-10-19T22:59:45.551Z,86.63
2018-10-19T23:05:07.312Z,82.93
2018-10-19T23:07:35.828Z,86.87
2018-10-19T23:10:05.088Z,88.30
2018-10-19T23:12:33.653Z,86.27
2018-10-19T23:15:02.256Z,88.23
2018-10-19T23:17:30.864Z,81.33
2018-10-19T23:19:59.436Z,90.03
2018-10-19T23:22:28.024Z,98.83
2018-10-19T23:24:56.622Z,94.80
2018-10-19T23:27:25.213Z,85.33
2018-10-19T23:29:53.804Z,94.97
2018-10-19T23:32:22.373Z,88.07
2018-10-19T23:34:50.989Z,82.80
2018-10-19T23:37:19.556Z,82.37
2018-10-19T23:39:48.158Z,88.37
2018-10-19T23:42:16.759Z,85.47
2018-10-19T23:44:45.334Z,84.70
2018-10-19T23:47:13.990Z,91.20
2018-10-19T23:49:42.535Z,90.50
2018-10-19T23:52:11.132Z,87.37
2018-10-19T23:54:39.724Z,89.93
2018-10-19T23:57:08.334Z,84.23
2018-10-19T23:59:36.959Z,79.73
